createdAt,value
2017-06-04T00:01:00.840Z,19.10
2017-06-04T00:03:28.291Z,19.00
2017-06-04T00:05:55.956Z,18.80
2017-06-04T00:08:23.399Z,18.50
2017-06-04T00:10:50.852Z,18.30
2017-06-04T00:13:18.343Z,18.10
2017-06-04T00:15:46.556Z,18.10
2017-06-04T00:18:14.056Z,18.10
2017-06-04T00:20:41.499Z,18.10
2017-06-04T00:23:08.970Z,18.00
2017-06-04T00:25:36.528Z,18.10
2017-06-04T00:28:03.972Z,18.00
2017-06-04T00:30:31.426Z,18.00
2017-06-04T00:32:58.900Z,18.00
2017-06-04T00:35:26.347Z,18.00
2017-06-04T00:37:53.804Z,17.90
2017-06-04T00:40:21.364Z,17.90
2017-06-04T00:42:49.364Z,17.80
2017-06-04T00:45:17.621Z,17.80
2017-06-04T00:47:45.164Z,17.70
2017-06-04T00:50:12.733Z,17.70
2017-06-04T00:52:40.278Z,17.70
2017-06-04T00:55:07.767Z,17.70
2017-06-04T00:57:35.245Z,17.60
2017-06-04T01:00:03.493Z,17.50
2017-06-04T01:02:31.717Z,17.40
2017-06-04T01:04:59.169Z,17.40
2017-06-04T01:07:26.758Z,17.40
2017-06-04T01:09:54.321Z,17.30
2017-06-04T01:12:21.938Z,17.20
2017-06-04T01:14:49.397Z,17.10
2017-06-04T01:17:16.855Z,17.10
2017-06-04T01:19:44.309Z,17.20
2017-06-04T01:22:11.818Z,17.30
2017-06-04T01:24:39.264Z,17.40
2017-06-04T01:27:06.829Z,17.40
2017-06-04T01:29:34.344Z,17.40
2017-06-04T01:32:01.809Z,17.30
2017-06-04T01:34:29.390Z,17.20
2017-06-04T01:36:56.843Z,17.20
2017-06-04T01:39:24.322Z,17.20
2017-06-04T01:41:52.589Z,17.20
2017-06-04T01:44:20.137Z,17.20
2017-06-04T01:46:47.718Z,17.30
2017-06-04T01:49:15.252Z,17.40
2017-06-04T01:51:42.708Z,17.40
2017-06-04T01:54:10.164Z,17.40
2017-06-04T01:56:37.629Z,17.40
2017-06-04T01:59:05.077Z,17.50
2017-06-04T02:01:32.549Z,17.40
2017-06-04T02:04:00.166Z,17.40
2017-06-04T02:06:27.654Z,17.40
2017-06-04T02:08:55.117Z,17.30
2017-06-04T02:11:22.573Z,17.30
2017-06-04T02:13:50.131Z,17.30
2017-06-04T02:16:17.585Z,17.30
2017-06-04T02:18:45.143Z,17.30
2017-06-04T02:21:12.597Z,17.30
2017-06-04T02:23:40.153Z,17.30
2017-06-04T02:26:07.601Z,17.30
2017-06-04T02:28:35.076Z,17.30
2017-06-04T02:31:02.590Z,17.20
2017-06-04T02:33:30.087Z,17.20
2017-06-04T02:35:57.545Z,17.20
2017-06-04T02:38:25.017Z,17.20
2017-06-04T02:40:52.457Z,17.10
2017-06-04T02:43:19.928Z,17.10
2017-06-04T02:45:48.193Z,17.00
2017-06-04T02:48:15.744Z,17.00
2017-06-04T02:50:43.200Z,17.00
2017-06-04T02:53:10.656Z,17.00
2017-06-04T02:55:38.143Z,17.00
2017-06-04T02:58:06.397Z,17.10
2017-06-04T03:00:33.848Z,17.00
2017-06-04T03:03:01.293Z,17.10
2017-06-04T03:05:28.760Z,17.00
2017-06-04T03:07:56.195Z,17.00
2017-06-04T03:10:23.675Z,17.00
2017-06-04T03:12:51.137Z,16.90
2017-06-04T03:15:18.650Z,16.90
2017-06-04T03:17:46.131Z,16.90
2017-06-04T03:20:13.592Z,16.80
2017-06-04T03:22:41.056Z,16.80
2017-06-04T03:25:08.530Z,16.80
2017-06-04T03:27:36.056Z,16.80
2017-06-04T03:30:03.532Z,16.70
2017-06-04T03:32:31.111Z,16.60
2017-06-04T03:34:59.427Z,16.60
2017-06-04T03:37:26.889Z,16.50
2017-06-04T03:39:54.371Z,16.60
2017-06-04T03:42:21.824Z,16.60
2017-06-04T03:44:49.288Z,16.70
2017-06-04T03:47:16.737Z,16.60
2017-06-04T03:49:44.188Z,16.60
2017-06-04T03:52:11.657Z,16.60
2017-06-04T03:54:39.130Z,16.50
2017-06-04T03:57:06.686Z,16.50
2017-06-04T03:59:34.132Z,16.50
2017-06-04T04:02:01.692Z,16.50
2017-06-04T04:04:29.145Z,16.50
2017-06-04T04:06:56.665Z,16.50
2017-06-04T04:09:24.155Z,16.50
2017-06-04T04:11:51.604Z,16.50
2017-06-04T04:14:19.054Z,16.40
2017-06-04T04:16:46.510Z,16.40
2017-06-04T04:19:13.974Z,16.40
2017-06-04T04:21:41.424Z,16.50
2017-06-04T04:24:08.886Z,16.40
2017-06-04T04:26:36.349Z,16.30
2017-06-04T04:29:03.813Z,16.20
2017-06-04T04:31:31.355Z,16.10
2017-06-04T04:33:58.820Z,15.80
2017-06-04T04:36:26.269Z,15.40
2017-06-04T04:38:53.729Z,15.40
2017-06-04T04:41:21.298Z,15.30
2017-06-04T04:43:48.741Z,15.20
2017-06-04T04:46:16.199Z,15.20
2017-06-04T04:48:43.726Z,15.10
2017-06-04T04:51:11.237Z,15.10
2017-06-04T04:53:39.492Z,15.10
2017-06-04T04:56:07.046Z,15.00
2017-06-04T04:58:34.504Z,15.10
2017-06-04T05:01:02.061Z,15.10
2017-06-04T05:03:29.515Z,15.00
2017-06-04T05:05:56.968Z,15.00
2017-06-04T05:08:24.428Z,14.90
2017-06-04T05:10:51.880Z,14.90
2017-06-04T05:13:19.343Z,14.90
2017-06-04T05:15:46.791Z,15.00
2017-06-04T05:18:14.252Z,14.90
2017-06-04T05:20:41.709Z,14.90
2017-06-04T05:23:09.164Z,14.90
2017-06-04T05:25:36.619Z,14.80
2017-06-04T05:28:04.074Z,14.80
2017-06-04T05:30:31.546Z,14.80
2017-06-04T05:32:59.108Z,14.80
2017-06-04T05:35:26.562Z,14.70
2017-06-04T05:37:54.106Z,14.70
2017-06-04T05:40:22.585Z,14.70
2017-06-04T05:42:50.050Z,14.70
2017-06-04T05:45:17.509Z,14.70
2017-06-04T05:47:45.033Z,14.70
2017-06-04T05:50:12.521Z,14.70
2017-06-04T05:52:39.993Z,14.70
2017-06-04T05:55:07.456Z,14.70
2017-06-04T05:57:35.707Z,14.80
2017-06-04T06:00:03.158Z,14.70
2017-06-04T06:02:30.637Z,14.80
2017-06-04T06:04:58.187Z,14.80
2017-06-04T06:07:25.638Z,14.80
2017-06-04T06:09:53.093Z,14.80
2017-06-04T06:12:20.544Z,14.70
2017-06-04T06:14:48.114Z,14.60
2017-06-04T06:17:15.573Z,14.60
2017-06-04T06:19:43.128Z,14.60
2017-06-04T06:22:10.576Z,14.60
2017-06-04T06:24:38.032Z,14.60
2017-06-04T06:27:05.488Z,14.60
2017-06-04T06:29:32.944Z,14.60
2017-06-04T06:32:00.549Z,14.60
2017-06-04T06:34:28.060Z,14.60
2017-06-04T06:36:55.621Z,14.60
2017-06-04T06:39:23.070Z,14.60
2017-06-04T06:41:50.576Z,14.60
2017-06-04T06:44:18.848Z,14.70
2017-06-04T06:46:47.055Z,14.60
2017-06-04T06:49:14.899Z,14.60
2017-06-04T06:51:42.607Z,14.60
2017-06-04T06:54:10.068Z,14.70
2017-06-04T06:56:37.529Z,14.50
2017-06-04T06:59:05.077Z,14.50
2017-06-04T07:01:32.542Z,14.50
2017-06-04T07:04:00.821Z,14.40
2017-06-04T07:06:28.447Z,14.40
2017-06-04T07:08:55.901Z,14.40
2017-06-04T07:11:23.399Z,14.40
2017-06-04T07:13:50.880Z,14.40
2017-06-04T07:16:18.357Z,14.40
2017-06-04T07:18:45.877Z,14.40
2017-06-04T07:21:13.420Z,14.40
2017-06-04T07:23:40.877Z,14.40
2017-06-04T07:26:08.373Z,14.50
2017-06-04T07:28:35.890Z,14.60
2017-06-04T07:31:03.469Z,14.60
2017-06-04T07:33:30.932Z,14.60
2017-06-04T07:35:59.185Z,14.70
2017-06-04T07:38:26.648Z,14.70
2017-06-04T07:40:54.226Z,14.70
2017-06-04T07:43:22.469Z,14.80
2017-06-04T07:45:50.020Z,14.70
2017-06-04T07:48:17.588Z,14.80
2017-06-04T07:50:45.061Z,14.90
2017-06-04T07:53:12.603Z,14.90
2017-06-04T07:55:40.156Z,15.00
2017-06-04T07:58:07.728Z,15.10
2017-06-04T08:00:35.181Z,15.10
2017-06-04T08:03:02.647Z,15.10
2017-06-04T08:05:30.195Z,15.10
2017-06-04T08:07:57.701Z,15.10
2017-06-04T08:10:25.295Z,15.20
2017-06-04T08:12:52.769Z,15.30
2017-06-04T08:15:20.220Z,15.40
2017-06-04T08:17:47.773Z,15.20
2017-06-04T08:20:15.241Z,15.20
2017-06-04T08:22:42.784Z,15.10
2017-06-04T08:25:10.358Z,15.10
2017-06-04T08:27:37.944Z,15.10
2017-06-04T08:30:06.181Z,15.10
2017-06-04T08:32:33.641Z,15.10
2017-06-04T08:35:01.105Z,15.20
2017-06-04T08:37:28.561Z,15.20
2017-06-04T08:39:56.104Z,15.30
2017-06-04T08:42:23.544Z,15.30
2017-06-04T08:44:51.029Z,15.40
2017-06-04T08:47:18.469Z,15.40
2017-06-04T08:49:45.929Z,15.40
2017-06-04T08:52:13.461Z,15.30
2017-06-04T08:54:40.963Z,15.40
2017-06-04T08:57:08.524Z,15.50
2017-06-04T08:59:35.968Z,15.60
2017-06-04T09:02:03.528Z,15.60
2017-06-04T09:04:30.987Z,15.50
2017-06-04T09:06:58.490Z,15.50
2017-06-04T09:09:25.998Z,15.50
2017-06-04T09:11:53.561Z,15.50
2017-06-04T09:14:21.004Z,15.50
2017-06-04T09:16:48.573Z,15.50
2017-06-04T09:19:16.028Z,15.50
2017-06-04T09:21:43.473Z,15.40
2017-06-04T09:24:11.045Z,15.30
2017-06-04T09:26:39.124Z,15.40
2017-06-04T09:29:06.584Z,15.40
2017-06-04T09:31:34.059Z,15.40
2017-06-04T09:34:01.520Z,15.40
2017-06-04T09:36:29.045Z,15.40
2017-06-04T09:38:56.591Z,15.50
2017-06-04T09:41:24.158Z,15.50
2017-06-04T09:43:51.613Z,15.60
2017-06-04T09:46:19.061Z,15.60
2017-06-04T09:48:46.512Z,15.60
2017-06-04T09:51:13.956Z,15.60
2017-06-04T09:53:41.431Z,15.60
2017-06-04T09:56:08.888Z,15.50
2017-06-04T09:58:36.364Z,15.40
2017-06-04T10:01:03.908Z,15.20
2017-06-04T10:03:31.384Z,15.10
2017-06-04T10:05:58.848Z,15.00
2017-06-04T10:08:27.128Z,15.40
2017-06-04T10:10:54.664Z,15.30
2017-06-04T10:13:22.121Z,15.60
2017-06-04T10:15:49.573Z,15.70
2017-06-04T10:18:17.049Z,15.90
2017-06-04T10:20:45.295Z,15.90
2017-06-04T10:23:12.739Z,15.90
2017-06-04T10:25:40.264Z,15.90
2017-06-04T10:28:07.707Z,15.80
2017-06-04T10:30:35.151Z,15.80
2017-06-04T10:33:02.604Z,15.80
2017-06-04T10:35:30.855Z,15.70
2017-06-04T10:37:58.306Z,15.70
2017-06-04T10:40:25.762Z,15.60
2017-06-04T10:42:53.325Z,15.60
2017-06-04T10:45:20.768Z,15.60
2017-06-04T10:47:48.207Z,15.60
2017-06-04T10:50:15.705Z,15.70
2017-06-04T10:52:43.244Z,15.80
2017-06-04T10:55:10.740Z,16.00
2017-06-04T10:57:38.192Z,16.00
2017-06-04T11:00:05.819Z,16.20
2017-06-04T11:02:33.312Z,16.40
2017-06-04T11:05:01.557Z,16.70
2017-06-04T11:07:29.082Z,16.60
2017-06-04T11:09:56.576Z,16.70
2017-06-04T11:12:24.025Z,16.70
2017-06-04T11:14:51.504Z,16.60
2017-06-04T11:17:18.958Z,16.60
2017-06-04T11:19:46.502Z,16.70
2017-06-04T11:22:13.965Z,16.80
2017-06-04T11:24:41.413Z,16.70
2017-06-04T11:27:08.881Z,16.70
2017-06-04T11:29:36.426Z,16.80
2017-06-04T11:32:03.888Z,16.90
2017-06-04T11:34:31.340Z,16.90
2017-06-04T11:36:58.796Z,17.00
2017-06-04T11:39:26.233Z,16.80
2017-06-04T11:41:53.699Z,16.90
2017-06-04T11:44:21.155Z,17.10
2017-06-04T11:46:48.713Z,17.20
2017-06-04T11:49:16.160Z,17.30
2017-06-04T11:51:43.758Z,17.20
2017-06-04T11:54:11.202Z,17.20
2017-06-04T11:56:38.639Z,17.30
2017-06-04T11:59:06.095Z,17.40
2017-06-04T12:01:33.565Z,17.60
2017-06-04T12:04:01.116Z,17.80
2017-06-04T12:06:28.564Z,17.90
2017-06-04T12:08:56.030Z,17.90
2017-06-04T12:11:23.584Z,17.80
2017-06-04T12:13:51.061Z,18.00
2017-06-04T12:16:18.505Z,17.90
2017-06-04T12:18:46.031Z,17.90
2017-06-04T12:21:13.590Z,17.90
2017-06-04T12:23:41.024Z,17.90
2017-06-04T12:26:08.535Z,17.90
2017-06-04T12:28:35.994Z,17.70
2017-06-04T12:31:03.545Z,17.70
2017-06-04T12:33:31.000Z,17.80
2017-06-04T12:35:58.461Z,17.90
2017-06-04T12:38:25.935Z,18.10
2017-06-04T12:40:53.472Z,18.10
2017-06-04T12:43:20.939Z,18.10
2017-06-04T12:45:48.390Z,18.00
2017-06-04T12:48:15.844Z,18.00
2017-06-04T12:50:43.370Z,18.00
2017-06-04T12:53:10.868Z,18.10
2017-06-04T12:55:38.304Z,18.20
2017-06-04T12:58:05.868Z,18.20
2017-06-04T13:00:33.324Z,18.10
2017-06-04T13:03:00.760Z,18.20
2017-06-04T13:05:28.241Z,18.30
2017-06-04T13:07:55.701Z,18.40
2017-06-04T13:10:23.277Z,18.50
2017-06-04T13:12:50.709Z,18.50
2017-06-04T13:15:18.285Z,18.40
2017-06-04T13:17:45.724Z,18.20
2017-06-04T13:20:13.164Z,18.40
2017-06-04T13:22:40.648Z,18.50
2017-06-04T13:25:08.110Z,18.50
2017-06-04T13:27:35.540Z,18.50
2017-06-04T13:30:03.004Z,18.60
2017-06-04T13:32:30.449Z,18.60
2017-06-04T13:34:57.920Z,18.60
2017-06-04T13:37:25.448Z,18.70
2017-06-04T13:39:52.933Z,18.70
2017-06-04T13:42:20.476Z,18.50
2017-06-04T13:44:47.957Z,18.50
2017-06-04T13:47:15.389Z,18.50
2017-06-04T13:49:42.844Z,18.50
2017-06-04T13:52:10.316Z,18.60
2017-06-04T13:54:37.949Z,18.60
2017-06-04T13:57:05.438Z,18.70
2017-06-04T13:59:32.929Z,18.80
2017-06-04T14:02:01.189Z,18.60
2017-06-04T14:04:28.697Z,18.50
2017-06-04T14:06:56.180Z,18.40
2017-06-04T14:09:23.625Z,18.40
2017-06-04T14:11:51.092Z,18.40
2017-06-04T14:14:18.557Z,18.50
2017-06-04T14:16:46.000Z,18.60
2017-06-04T14:19:13.466Z,18.60
2017-06-04T14:21:40.928Z,18.60
2017-06-04T14:24:08.387Z,18.50
2017-06-04T14:26:35.929Z,18.60
2017-06-04T14:29:03.407Z,18.80
2017-06-04T14:31:30.837Z,18.80
2017-06-04T14:33:58.284Z,18.90
2017-06-04T14:36:25.778Z,19.00
2017-06-04T14:38:53.225Z,19.10
2017-06-04T14:41:20.660Z,19.00
2017-06-04T14:43:48.141Z,19.00
2017-06-04T14:46:15.719Z,19.00
2017-06-04T14:48:43.967Z,19.10
2017-06-04T14:51:11.416Z,19.10
2017-06-04T14:53:38.873Z,19.10
2017-06-04T14:56:06.335Z,19.10
2017-06-04T14:58:33.781Z,19.20
2017-06-04T15:01:01.252Z,19.30
2017-06-04T15:03:28.696Z,19.30
2017-06-04T15:05:56.157Z,19.30
2017-06-04T15:08:23.592Z,19.40
2017-06-04T15:10:51.084Z,19.60
2017-06-04T15:13:18.536Z,19.60
2017-06-04T15:15:46.194Z,20.10
2017-06-04T15:18:13.749Z,20.80
2017-06-04T15:20:41.189Z,21.30
2017-06-04T15:23:08.729Z,21.60
2017-06-04T15:25:36.176Z,21.90
2017-06-04T15:28:03.668Z,21.70
2017-06-04T15:30:31.107Z,21.60
2017-06-04T15:32:58.581Z,21.90
2017-06-04T15:35:26.152Z,21.40
2017-06-04T15:37:53.603Z,21.30
2017-06-04T15:40:21.127Z,21.40
2017-06-04T15:42:48.574Z,21.70
2017-06-04T15:45:16.069Z,22.00
2017-06-04T15:47:43.531Z,21.90
2017-06-04T15:50:11.087Z,22.00
2017-06-04T15:52:38.544Z,22.10
2017-06-04T15:55:05.989Z,22.10
2017-06-04T15:57:33.457Z,22.80
2017-06-04T16:00:00.920Z,22.60
2017-06-04T16:02:28.388Z,22.10
2017-06-04T16:04:55.921Z,22.00
2017-06-04T16:07:23.391Z,22.20
2017-06-04T16:09:50.836Z,22.20
2017-06-04T16:12:18.305Z,22.00
2017-06-04T16:14:45.850Z,22.00
2017-06-04T16:17:13.416Z,22.20
2017-06-04T16:19:40.869Z,22.20
2017-06-04T16:22:08.421Z,22.00
2017-06-04T16:24:35.877Z,21.60
2017-06-04T16:27:03.952Z,21.80
2017-06-04T16:29:31.425Z,21.90
2017-06-04T16:31:58.984Z,21.80
2017-06-04T16:34:26.496Z,21.80
2017-06-04T16:36:53.917Z,21.80
2017-06-04T16:39:22.131Z,21.90
2017-06-04T16:41:49.649Z,21.90
2017-06-04T16:44:17.861Z,21.60
2017-06-04T16:46:45.347Z,21.60
2017-06-04T16:49:12.817Z,21.10
2017-06-04T16:51:40.256Z,20.70
2017-06-04T16:54:07.711Z,20.90
2017-06-04T16:56:35.181Z,21.20
2017-06-04T16:59:02.615Z,21.40
2017-06-04T17:01:30.095Z,21.50
2017-06-04T17:03:57.637Z,21.20
2017-06-04T17:06:25.088Z,20.70
2017-06-04T17:08:52.556Z,20.10
2017-06-04T17:11:20.118Z,19.60
2017-06-04T17:13:47.570Z,19.20
2017-06-04T17:16:15.029Z,19.20
2017-06-04T17:18:42.473Z,19.40
2017-06-04T17:21:09.938Z,19.50
2017-06-04T17:23:37.399Z,19.30
2017-06-04T17:26:04.849Z,19.00
2017-06-04T17:28:32.303Z,18.90
2017-06-04T17:30:59.765Z,18.90
2017-06-04T17:33:27.218Z,18.90
2017-06-04T17:35:54.681Z,18.70
2017-06-04T17:38:22.232Z,18.70
2017-06-04T17:40:49.676Z,18.50
2017-06-04T17:43:17.250Z,18.40
2017-06-04T17:45:44.693Z,18.30
2017-06-04T17:48:12.145Z,18.50
2017-06-04T17:50:39.588Z,18.70
2017-06-04T17:53:07.051Z,19.20
2017-06-04T17:55:34.509Z,19.20
2017-06-04T17:58:02.058Z,19.50
2017-06-04T18:00:29.484Z,19.60
2017-06-04T18:02:56.935Z,19.40
2017-06-04T18:05:24.557Z,19.20
2017-06-04T18:07:52.162Z,19.10
2017-06-04T18:10:20.377Z,18.70
2017-06-04T18:12:47.824Z,18.70
2017-06-04T18:15:15.275Z,18.60
2017-06-04T18:17:42.791Z,18.50
2017-06-04T18:20:10.999Z,18.20
2017-06-04T18:22:38.450Z,18.10
2017-06-04T18:25:05.892Z,18.10
2017-06-04T18:27:33.363Z,18.00
2017-06-04T18:30:00.856Z,17.80
2017-06-04T18:32:28.304Z,17.60
2017-06-04T18:34:55.880Z,17.40
2017-06-04T18:37:23.433Z,17.30
2017-06-04T18:39:50.920Z,17.10
2017-06-04T18:42:19.168Z,17.00
2017-06-04T18:44:46.617Z,16.90
2017-06-04T18:47:14.077Z,16.90
2017-06-04T18:49:41.636Z,16.90
2017-06-04T18:52:09.369Z,16.90
2017-06-04T18:54:36.814Z,16.80
2017-06-04T18:57:04.391Z,16.70
2017-06-04T18:59:31.880Z,16.70
2017-06-04T19:01:59.442Z,16.70
2017-06-04T19:04:26.989Z,16.70
2017-06-04T19:06:54.437Z,16.70
2017-06-04T19:09:21.893Z,16.70
2017-06-04T19:11:49.360Z,16.60
2017-06-04T19:14:16.802Z,16.60
2017-06-04T19:16:44.952Z,16.50
2017-06-04T19:19:12.920Z,16.40
2017-06-04T19:21:40.992Z,16.40
2017-06-04T19:24:08.960Z,16.30
2017-06-04T19:26:37.031Z,16.20
2017-06-04T19:29:05.101Z,16.20
2017-06-04T19:34:10.255Z,16.00
2017-06-04T19:36:38.324Z,16.00
2017-06-04T19:39:07.010Z,15.80
2017-06-04T19:41:34.876Z,15.70
2017-06-04T19:44:02.702Z,15.70
2017-06-04T19:46:31.324Z,15.60
2017-06-04T19:48:59.190Z,15.50
2017-06-04T19:51:27.260Z,15.50
2017-06-04T19:53:55.127Z,15.50
2017-06-04T19:56:23.095Z,15.40
2017-06-04T19:58:51.040Z,15.30
2017-06-04T20:01:18.782Z,15.30
2017-06-04T20:03:46.897Z,15.20
2017-06-04T20:06:14.866Z,15.20
2017-06-04T20:08:42.732Z,15.10
2017-06-04T20:11:10.701Z,15.10
2017-06-04T20:13:39.384Z,15.00
2017-06-04T20:16:07.454Z,15.00
2017-06-04T20:18:35.536Z,15.00
2017-06-04T20:21:04.517Z,15.00
2017-06-04T20:23:33.612Z,14.90
2017-06-04T20:26:01.682Z,14.90
2017-06-04T20:28:29.650Z,15.00
2017-06-04T20:30:57.527Z,14.90
2017-06-04T20:33:25.690Z,14.90
2017-06-04T20:35:53.659Z,14.90
2017-06-04T20:38:21.705Z,14.90
2017-06-04T20:40:50.784Z,14.80
2017-06-04T20:43:18.656Z,14.80
2017-06-04T20:45:46.621Z,14.80
2017-06-04T20:48:14.693Z,14.80
2017-06-04T20:50:42.557Z,14.70
2017-06-04T20:53:10.628Z,14.70
2017-06-04T20:55:38.160Z,14.60
2017-06-04T20:58:06.679Z,14.60
2017-06-04T21:00:34.160Z,14.50
2017-06-04T21:03:01.598Z,14.60
2017-06-04T21:05:29.076Z,14.60
2017-06-04T21:07:56.655Z,14.50
2017-06-04T21:10:24.852Z,14.50
2017-06-04T21:12:52.394Z,14.50
2017-06-04T21:15:20.736Z,14.50
2017-06-04T21:17:48.186Z,14.50
2017-06-04T21:20:15.621Z,14.50
2017-06-04T21:22:43.067Z,14.60
2017-06-04T21:25:10.660Z,14.50
2017-06-04T21:27:38.228Z,14.50
2017-06-04T21:30:05.686Z,14.50
2017-06-04T21:32:33.142Z,14.50
2017-06-04T21:35:00.708Z,14.40
2017-06-04T21:37:28.367Z,14.50
2017-06-04T21:39:55.832Z,14.40
2017-06-04T21:42:23.359Z,14.40
2017-06-04T21:44:51.632Z,14.40
2017-06-04T21:47:19.857Z,14.40
2017-06-04T21:49:47.364Z,14.40
2017-06-04T21:52:15.618Z,14.40
2017-06-04T21:54:43.084Z,14.30
2017-06-04T21:57:10.547Z,14.30
2017-06-04T21:59:38.612Z,14.30
2017-06-04T22:02:06.255Z,14.40
2017-06-04T22:04:33.713Z,14.30
2017-06-04T22:07:01.258Z,14.30
2017-06-04T22:09:28.755Z,14.20
2017-06-04T22:11:56.980Z,14.30
2017-06-04T22:14:24.473Z,14.20
2017-06-04T22:16:51.941Z,14.30
2017-06-04T22:19:20.214Z,14.30
2017-06-04T22:21:47.679Z,14.20
2017-06-04T22:24:15.931Z,14.20
2017-06-04T22:26:43.477Z,14.20
2017-06-04T22:29:10.934Z,14.30
2017-06-04T22:31:38.396Z,14.30
2017-06-04T22:34:05.873Z,14.30
2017-06-04T22:36:33.412Z,14.30
2017-06-04T22:39:00.958Z,14.20
2017-06-04T22:41:28.532Z,14.20
2017-06-04T22:43:56.087Z,14.10
2017-06-04T22:46:23.564Z,14.10
2017-06-04T22:48:51.821Z,14.00
2017-06-04T22:51:19.266Z,13.90
2017-06-04T22:53:46.722Z,13.90
2017-06-04T22:56:14.176Z,13.90
2017-06-04T22:58:41.636Z,13.80
2017-06-04T23:01:09.103Z,13.80
2017-06-04T23:03:36.653Z,13.80
2017-06-04T23:06:04.112Z,13.80
2017-06-04T23:08:31.551Z,13.70
2017-06-04T23:10:59.031Z,13.70
2017-06-04T23:13:26.477Z,13.70
2017-06-04T23:15:53.945Z,13.70
2017-06-04T23:18:21.409Z,13.60
2017-06-04T23:20:48.948Z,13.60
2017-06-04T23:23:16.419Z,13.60
2017-06-04T23:25:43.961Z,13.60
2017-06-04T23:28:11.436Z,13.60
2017-06-04T23:30:38.989Z,13.50
2017-06-04T23:33:06.440Z,13.50
2017-06-04T23:35:33.900Z,13.50
2017-06-04T23:38:01.345Z,13.40
2017-06-04T23:40:28.879Z,13.50
2017-06-04T23:42:56.326Z,13.50
2017-06-04T23:45:23.763Z,13.50
2017-06-04T23:47:51.270Z,13.40
2017-06-04T23:50:18.728Z,13.40
2017-06-04T23:52:46.301Z,13.40
2017-06-04T23:55:13.777Z,13.40
2017-06-04T23:57:42.031Z,13.30
